sensor_id;sensor_type;location;lat;lon;timestamp;pressure;altitude;pressure_sealevel;temperature;humidity
74334;BME280;62753;40.394;-80.022;2023-08-17T00:02:09;97256.83;;;29.51;34.26
74334;BME280;62753;40.394;-80.022;2023-08-17T00:04:36;97255.26;;;29.69;33.55
74334;BME280;62753;40.394;-80.022;2023-08-17T00:07:01;97255.60;;;30.13;32.50
74334;BME280;62753;40.394;-80.022;2023-08-17T00:09:26;97258.80;;;29.16;33.43
74334;BME280;62753;40.394;-80.022;2023-08-17T00:11:52;97255.21;;;30.53;32.31
74334;BME280;62753;40.394;-80.022;2023-08-17T00:14:17;97254.21;;;29.42;33.51
74334;BME280;62753;40.394;-80.022;2023-08-17T00:16:42;97251.09;;;30.26;32.37
74334;BME280;62753;40.394;-80.022;2023-08-17T00:19:07;97251.51;;;29.69;32.71
74334;BME280;62753;40.394;-80.022;2023-08-17T00:21:32;97252.05;;;30.41;32.11
74334;BME280;62753;40.394;-80.022;2023-08-17T00:23:57;97250.25;;;30.64;31.36
74334;BME280;62753;40.394;-80.022;2023-08-17T00:26:23;97252.40;;;30.20;32.31
74334;BME280;62753;40.394;-80.022;2023-08-17T00:28:48;97253.92;;;29.06;33.24
74334;BME280;62753;40.394;-80.022;2023-08-17T00:31:14;97256.14;;;30.31;32.27
74334;BME280;62753;40.394;-80.022;2023-08-17T00:33:39;97260.65;;;30.26;32.15
74334;BME280;62753;40.394;-80.022;2023-08-17T00:36:05;97261.28;;;29.90;33.06
74334;BME280;62753;40.394;-80.022;2023-08-17T00:38:31;97263.63;;;30.05;32.65
74334;BME280;62753;40.394;-80.022;2023-08-17T00:40:55;97265.84;;;29.96;32.38
74334;BME280;62753;40.394;-80.022;2023-08-17T00:43:21;97267.99;;;29.58;32.98
74334;BME280;62753;40.394;-80.022;2023-08-17T00:45:47;97270.42;;;30.81;31.74
74334;BME280;62753;40.394;-80.022;2023-08-17T00:48:12;97271.20;;;30.58;32.02
74334;BME280;62753;40.394;-80.022;2023-08-17T00:50:38;97271.06;;;29.85;32.47
74334;BME280;62753;40.394;-80.022;2023-08-17T00:53:03;97273.08;;;29.14;33.55
74334;BME280;62753;40.394;-80.022;2023-08-17T00:55:28;97274.27;;;29.73;33.19
74334;BME280;62753;40.394;-80.022;2023-08-17T00:57:55;97278.51;;;29.83;33.55
74334;BME280;62753;40.394;-80.022;2023-08-17T01:00:19;97281.32;;;29.83;33.24
74334;BME280;62753;40.394;-80.022;2023-08-17T01:02:45;97285.28;;;29.96;33.14
74334;BME280;62753;40.394;-80.022;2023-08-17T01:05:09;97286.02;;;29.70;33.40
74334;BME280;62753;40.394;-80.022;2023-08-17T01:07:35;97286.32;;;30.34;32.67
74334;BME280;62753;40.394;-80.022;2023-08-17T01:10:06;97288.94;;;30.48;32.61
74334;BME280;62753;40.394;-80.022;2023-08-17T01:12:30;97287.34;;;30.22;33.40
74334;BME280;62753;40.394;-80.022;2023-08-17T01:14:58;97289.73;;;30.23;33.15
74334;BME280;62753;40.394;-80.022;2023-08-17T01:17:21;97289.86;;;30.39;32.85
74334;BME280;62753;40.394;-80.022;2023-08-17T01:19:43;97292.63;;;30.29;32.46
74334;BME280;62753;40.394;-80.022;2023-08-17T01:22:09;97295.43;;;30.66;32.28
74334;BME280;62753;40.394;-80.022;2023-08-17T01:24:34;97298.64;;;30.43;32.34
74334;BME280;62753;40.394;-80.022;2023-08-17T01:26:59;97302.98;;;31.53;31.18
74334;BME280;62753;40.394;-80.022;2023-08-17T01:29:24;97307.35;;;29.80;33.50
74334;BME280;62753;40.394;-80.022;2023-08-17T01:31:57;97309.02;;;30.15;33.08
74334;BME280;62753;40.394;-80.022;2023-08-17T01:34:19;97313.53;;;30.36;32.64
74334;BME280;62753;40.394;-80.022;2023-08-17T01:36:46;97314.19;;;30.71;32.44
74334;BME280;62753;40.394;-80.022;2023-08-17T01:39:07;97313.31;;;31.08;32.03
74334;BME280;62753;40.394;-80.022;2023-08-17T01:41:33;97314.02;;;31.63;31.13
74334;BME280;62753;40.394;-80.022;2023-08-17T01:43:58;97315.31;;;31.61;31.57
74334;BME280;62753;40.394;-80.022;2023-08-17T01:46:25;97315.98;;;31.38;31.51
74334;BME280;62753;40.394;-80.022;2023-08-17T01:48:49;97318.54;;;31.39;31.97
74334;BME280;62753;40.394;-80.022;2023-08-17T01:51:17;97318.12;;;30.89;32.47
74334;BME280;62753;40.394;-80.022;2023-08-17T01:53:39;97318.33;;;31.44;31.52
74334;BME280;62753;40.394;-80.022;2023-08-17T01:56:05;97325.59;;;31.05;31.89
74334;BME280;62753;40.394;-80.022;2023-08-17T01:58:30;97331.12;;;31.03;31.70
74334;BME280;62753;40.394;-80.022;2023-08-17T02:00:55;97338.29;;;31.44;31.74
74334;BME280;62753;40.394;-80.022;2023-08-17T02:03:21;97340.62;;;30.35;32.84
74334;BME280;62753;40.394;-80.022;2023-08-17T02:05:46;97341.93;;;30.50;32.54
74334;BME280;62753;40.394;-80.022;2023-08-17T02:08:11;97343.10;;;29.99;33.64
74334;BME280;62753;40.394;-80.022;2023-08-17T02:10:37;97345.27;;;29.94;33.62
74334;BME280;62753;40.394;-80.022;2023-08-17T02:13:03;97347.17;;;31.05;32.05
74334;BME280;62753;40.394;-80.022;2023-08-17T02:15:28;97347.75;;;31.35;31.90
74334;BME280;62753;40.394;-80.022;2023-08-17T02:17:53;97344.07;;;30.32;33.25
74334;BME280;62753;40.394;-80.022;2023-08-17T02:20:20;97342.70;;;30.45;32.89
74334;BME280;62753;40.394;-80.022;2023-08-17T02:22:45;97338.68;;;29.63;34.12
74334;BME280;62753;40.394;-80.022;2023-08-17T02:25:10;97337.60;;;29.55;34.50
74334;BME280;62753;40.394;-80.022;2023-08-17T02:27:35;97334.38;;;31.37;31.66
74334;BME280;62753;40.394;-80.022;2023-08-17T02:30:01;97335.20;;;30.31;33.27
74334;BME280;62753;40.394;-80.022;2023-08-17T02:32:25;97333.69;;;30.43;33.06
74334;BME280;62753;40.394;-80.022;2023-08-17T02:34:51;97333.09;;;30.28;33.04
74334;BME280;62753;40.394;-80.022;2023-08-17T02:37:17;97332.36;;;29.64;33.76
74334;BME280;62753;40.394;-80.022;2023-08-17T02:39:42;97330.83;;;30.32;33.27
74334;BME280;62753;40.394;-80.022;2023-08-17T02:42:07;97336.52;;;30.98;32.35
74334;BME280;62753;40.394;-80.022;2023-08-17T02:44:32;97336.91;;;30.78;32.89
74334;BME280;62753;40.394;-80.022;2023-08-17T02:46:57;97333.30;;;29.49;34.13
74334;BME280;62753;40.394;-80.022;2023-08-17T02:49:23;97331.86;;;29.84;33.92
74334;BME280;62753;40.394;-80.022;2023-08-17T02:51:49;97329.42;;;30.25;33.83
74334;BME280;62753;40.394;-80.022;2023-08-17T02:54:13;97329.17;;;29.61;33.97
74334;BME280;62753;40.394;-80.022;2023-08-17T02:56:39;97327.49;;;30.01;33.96
74334;BME280;62753;40.394;-80.022;2023-08-17T02:59:04;97324.91;;;29.74;34.12
74334;BME280;62753;40.394;-80.022;2023-08-17T03:01:30;97326.75;;;29.56;35.02
74334;BME280;62753;40.394;-80.022;2023-08-17T03:03:56;97321.47;;;28.60;35.83
74334;BME280;62753;40.394;-80.022;2023-08-17T03:06:21;97315.88;;;29.68;34.34
74334;BME280;62753;40.394;-80.022;2023-08-17T03:08:46;97318.27;;;28.52;36.20
74334;BME280;62753;40.394;-80.022;2023-08-17T03:11:11;97312.41;;;28.86;35.53
74334;BME280;62753;40.394;-80.022;2023-08-17T03:13:37;97306.98;;;28.63;36.32
74334;BME280;62753;40.394;-80.022;2023-08-17T03:16:02;97308.34;;;28.80;35.66
74334;BME280;62753;40.394;-80.022;2023-08-17T03:18:27;97302.38;;;30.04;34.08
74334;BME280;62753;40.394;-80.022;2023-08-17T03:20:53;97307.68;;;31.23;32.44
74334;BME280;62753;40.394;-80.022;2023-08-17T03:23:18;97306.35;;;30.86;33.06
74334;BME280;62753;40.394;-80.022;2023-08-17T03:25:45;97301.60;;;30.28;33.88
74334;BME280;62753;40.394;-80.022;2023-08-17T03:28:10;97301.41;;;29.82;34.50
74334;BME280;62753;40.394;-80.022;2023-08-17T03:30:36;97300.34;;;29.62;35.02
74334;BME280;62753;40.394;-80.022;2023-08-17T03:33:02;97298.15;;;29.00;35.40
74334;BME280;62753;40.394;-80.022;2023-08-17T03:35:27;97295.12;;;29.19;35.26
74334;BME280;62753;40.394;-80.022;2023-08-17T03:37:52;97292.55;;;29.85;34.54
74334;BME280;62753;40.394;-80.022;2023-08-17T03:40:18;97293.33;;;30.08;33.75
74334;BME280;62753;40.394;-80.022;2023-08-17T03:42:43;97293.69;;;29.88;34.75
74334;BME280;62753;40.394;-80.022;2023-08-17T03:45:09;97294.75;;;29.32;35.46
74334;BME280;62753;40.394;-80.022;2023-08-17T03:47:34;97293.16;;;29.34;35.41
74334;BME280;62753;40.394;-80.022;2023-08-17T03:49:59;97290.80;;;28.63;36.19
74334;BME280;62753;40.394;-80.022;2023-08-17T03:52:26;97290.37;;;27.86;37.51
74334;BME280;62753;40.394;-80.022;2023-08-17T03:54:50;97287.82;;;29.46;35.30
74334;BME280;62753;40.394;-80.022;2023-08-17T03:57:16;97283.13;;;28.55;35.97
74334;BME280;62753;40.394;-80.022;2023-08-17T03:59:42;97281.35;;;28.81;36.27
74334;BME280;62753;40.394;-80.022;2023-08-17T04:02:06;97278.21;;;28.89;36.00
74334;BME280;62753;40.394;-80.022;2023-08-17T04:04:32;97275.54;;;28.29;36.87
74334;BME280;62753;40.394;-80.022;2023-08-17T04:06:57;97272.02;;;28.46;36.53
74334;BME280;62753;40.394;-80.022;2023-08-17T04:09:22;97268.38;;;28.10;37.11
74334;BME280;62753;40.394;-80.022;2023-08-17T04:11:47;97266.75;;;28.63;35.71
74334;BME280;62753;40.394;-80.022;2023-08-17T04:14:13;97261.47;;;28.71;36.04
74334;BME280;62753;40.394;-80.022;2023-08-17T04:16:38;97260.14;;;28.69;36.62
74334;BME280;62753;40.394;-80.022;2023-08-17T04:19:04;97253.37;;;28.39;36.26
74334;BME280;62753;40.394;-80.022;2023-08-17T04:21:30;97252.26;;;28.52;36.51
74334;BME280;62753;40.394;-80.022;2023-08-17T04:23:55;97251.10;;;28.88;36.20
74334;BME280;62753;40.394;-80.022;2023-08-17T04:26:21;97247.97;;;28.07;36.82
74334;BME280;62753;40.394;-80.022;2023-08-17T04:28:47;97247.75;;;27.97;37.11
74334;BME280;62753;40.394;-80.022;2023-08-17T04:31:12;97242.95;;;28.91;35.41
74334;BME280;62753;40.394;-80.022;2023-08-17T04:33:39;97242.73;;;28.86;35.84
74334;BME280;62753;40.394;-80.022;2023-08-17T04:36:04;97234.83;;;28.19;36.44
74334;BME280;62753;40.394;-80.022;2023-08-17T04:38:29;97232.88;;;29.10;35.81
74334;BME280;62753;40.394;-80.022;2023-08-17T04:40:55;97233.95;;;28.71;36.03
74334;BME280;62753;40.394;-80.022;2023-08-17T04:43:20;97232.34;;;27.88;37.20
74334;BME280;62753;40.394;-80.022;2023-08-17T04:45:45;97228.79;;;28.27;36.97
74334;BME280;62753;40.394;-80.022;2023-08-17T04:48:11;97222.86;;;27.55;38.33
74334;BME280;62753;40.394;-80.022;2023-08-17T04:50:37;97225.87;;;28.17;37.21
74334;BME280;62753;40.394;-80.022;2023-08-17T04:53:01;97220.16;;;27.99;37.05
74334;BME280;62753;40.394;-80.022;2023-08-17T04:55:27;97216.16;;;28.51;36.64
74334;BME280;62753;40.394;-80.022;2023-08-17T04:57:53;97217.14;;;28.62;36.38
74334;BME280;62753;40.394;-80.022;2023-08-17T05:00:18;97214.04;;;29.27;35.39
74334;BME280;62753;40.394;-80.022;2023-08-17T05:02:43;97213.33;;;29.51;34.82
74334;BME280;62753;40.394;-80.022;2023-08-17T05:05:11;97205.53;;;29.09;35.41
74334;BME280;62753;40.394;-80.022;2023-08-17T05:07:34;97203.07;;;28.81;35.47
74334;BME280;62753;40.394;-80.022;2023-08-17T05:10:00;97208.34;;;29.11;35.67
74334;BME280;62753;40.394;-80.022;2023-08-17T05:12:25;97208.71;;;28.81;35.91
74334;BME280;62753;40.394;-80.022;2023-08-17T05:14:51;97209.28;;;28.65;35.92
74334;BME280;62753;40.394;-80.022;2023-08-17T05:17:16;97210.92;;;28.24;36.63
74334;BME280;62753;40.394;-80.022;2023-08-17T05:19:42;97212.03;;;27.59;37.31
74334;BME280;62753;40.394;-80.022;2023-08-17T05:22:11;97212.24;;;27.89;37.38
74334;BME280;62753;40.394;-80.022;2023-08-17T05:24:33;97209.89;;;27.41;37.87
74334;BME280;62753;40.394;-80.022;2023-08-17T05:26:58;97206.55;;;27.53;38.00
74334;BME280;62753;40.394;-80.022;2023-08-17T05:29:23;97208.57;;;27.61;37.65
74334;BME280;62753;40.394;-80.022;2023-08-17T05:31:49;97205.71;;;27.49;37.84
74334;BME280;62753;40.394;-80.022;2023-08-17T05:34:15;97201.05;;;28.05;37.24
74334;BME280;62753;40.394;-80.022;2023-08-17T05:36:41;97200.46;;;27.79;37.17
74334;BME280;62753;40.394;-80.022;2023-08-17T05:39:07;97199.32;;;28.20;37.47
74334;BME280;62753;40.394;-80.022;2023-08-17T05:41:32;97193.74;;;28.30;36.77
74334;BME280;62753;40.394;-80.022;2023-08-17T05:43:57;97192.50;;;28.14;37.07
74334;BME280;62753;40.394;-80.022;2023-08-17T05:46:23;97190.72;;;27.98;37.23
74334;BME280;62753;40.394;-80.022;2023-08-17T05:48:49;97188.64;;;27.99;37.24
74334;BME280;62753;40.394;-80.022;2023-08-17T05:51:13;97188.47;;;27.73;38.06
74334;BME280;62753;40.394;-80.022;2023-08-17T05:53:39;97186.21;;;28.13;37.07
74334;BME280;62753;40.394;-80.022;2023-08-17T05:56:05;97183.85;;;27.85;37.72
74334;BME280;62753;40.394;-80.022;2023-08-17T05:58:30;97172.40;;;29.03;35.60
74334;BME280;62753;40.394;-80.022;2023-08-17T06:01:04;97172.61;;;27.91;37.00
74334;BME280;62753;40.394;-80.022;2023-08-17T06:03:21;97174.41;;;27.45;37.50
74334;BME280;62753;40.394;-80.022;2023-08-17T06:05:47;97172.97;;;28.57;36.35
74334;BME280;62753;40.394;-80.022;2023-08-17T06:08:13;97169.01;;;28.82;35.71
74334;BME280;62753;40.394;-80.022;2023-08-17T06:10:38;97164.58;;;28.70;35.90
74334;BME280;62753;40.394;-80.022;2023-08-17T06:13:04;97159.82;;;28.25;36.14
74334;BME280;62753;40.394;-80.022;2023-08-17T06:15:30;97162.48;;;28.71;36.17
74334;BME280;62753;40.394;-80.022;2023-08-17T06:17:55;97157.51;;;28.89;35.76
74334;BME280;62753;40.394;-80.022;2023-08-17T06:20:20;97154.77;;;28.66;35.67
74334;BME280;62753;40.394;-80.022;2023-08-17T06:22:47;97156.08;;;28.71;36.37
74334;BME280;62753;40.394;-80.022;2023-08-17T06:25:11;97155.73;;;27.44;37.93
74334;BME280;62753;40.394;-80.022;2023-08-17T06:27:37;97152.94;;;27.91;37.80
74334;BME280;62753;40.394;-80.022;2023-08-17T06:30:03;97151.74;;;26.57;39.79
74334;BME280;62753;40.394;-80.022;2023-08-17T06:32:28;97149.63;;;28.20;37.30
74334;BME280;62753;40.394;-80.022;2023-08-17T06:34:54;97145.61;;;28.89;36.26
74334;BME280;62753;40.394;-80.022;2023-08-17T06:37:20;97151.46;;;27.97;37.79
74334;BME280;62753;40.394;-80.022;2023-08-17T06:39:45;97147.59;;;27.59;38.64
74334;BME280;62753;40.394;-80.022;2023-08-17T06:42:09;97148.37;;;28.45;37.38
74334;BME280;62753;40.394;-80.022;2023-08-17T06:44:35;97148.79;;;28.23;37.27
74334;BME280;62753;40.394;-80.022;2023-08-17T06:47:00;97152.09;;;27.80;38.49
74334;BME280;62753;40.394;-80.022;2023-08-17T06:49:26;97151.39;;;27.82;38.94
74334;BME280;62753;40.394;-80.022;2023-08-17T06:51:51;97151.54;;;27.60;38.92
74334;BME280;62753;40.394;-80.022;2023-08-17T06:54:17;97149.38;;;26.56;41.11
74334;BME280;62753;40.394;-80.022;2023-08-17T06:56:42;97152.09;;;26.30;42.19
74334;BME280;62753;40.394;-80.022;2023-08-17T06:59:07;97151.49;;;27.14;40.85
74334;BME280;62753;40.394;-80.022;2023-08-17T07:01:33;97149.93;;;27.40;40.06
74334;BME280;62753;40.394;-80.022;2023-08-17T07:03:58;97151.37;;;27.14;40.70
74334;BME280;62753;40.394;-80.022;2023-08-17T07:06:24;97151.40;;;27.47;39.93
74334;BME280;62753;40.394;-80.022;2023-08-17T07:08:49;97154.45;;;27.93;38.71
74334;BME280;62753;40.394;-80.022;2023-08-17T07:11:14;97151.80;;;27.15;40.49
74334;BME280;62753;40.394;-80.022;2023-08-17T07:13:40;97146.98;;;27.65;39.91
74334;BME280;62753;40.394;-80.022;2023-08-17T07:16:05;97145.26;;;27.01;40.31
74334;BME280;62753;40.394;-80.022;2023-08-17T07:18:31;97141.17;;;27.20;40.48
74334;BME280;62753;40.394;-80.022;2023-08-17T07:20:56;97140.76;;;26.10;42.44
74334;BME280;62753;40.394;-80.022;2023-08-17T07:23:21;97143.34;;;25.73;43.19
74334;BME280;62753;40.394;-80.022;2023-08-17T07:25:49;97142.25;;;25.29;44.06
74334;BME280;62753;40.394;-80.022;2023-08-17T07:28:12;97139.91;;;25.86;43.10
74334;BME280;62753;40.394;-80.022;2023-08-17T07:30:38;97137.15;;;27.32;40.48
74334;BME280;62753;40.394;-80.022;2023-08-17T07:33:04;97139.24;;;27.54;39.91
74334;BME280;62753;40.394;-80.022;2023-08-17T07:35:29;97140.21;;;27.38;39.40
74334;BME280;62753;40.394;-80.022;2023-08-17T07:37:54;97142.29;;;28.54;37.61
74334;BME280;62753;40.394;-80.022;2023-08-17T07:40:19;97136.62;;;28.75;36.69
74334;BME280;62753;40.394;-80.022;2023-08-17T07:42:46;97139.63;;;28.48;37.32
74334;BME280;62753;40.394;-80.022;2023-08-17T07:45:10;97139.59;;;29.51;35.75
74334;BME280;62753;40.394;-80.022;2023-08-17T07:47:35;97136.85;;;29.15;36.06
74334;BME280;62753;40.394;-80.022;2023-08-17T07:50:01;97138.71;;;28.97;36.47
74334;BME280;62753;40.394;-80.022;2023-08-17T07:52:25;97138.47;;;28.93;36.89
74334;BME280;62753;40.394;-80.022;2023-08-17T07:54:51;97144.38;;;28.48;37.09
74334;BME280;62753;40.394;-80.022;2023-08-17T07:57:17;97141.73;;;29.57;35.67
74334;BME280;62753;40.394;-80.022;2023-08-17T07:59:42;97138.68;;;29.47;36.28
74334;BME280;62753;40.394;-80.022;2023-08-17T08:02:07;97142.88;;;27.37;39.49
74334;BME280;62753;40.394;-80.022;2023-08-17T08:04:32;97137.62;;;28.52;37.64
74334;BME280;62753;40.394;-80.022;2023-08-17T08:06:58;97130.93;;;28.92;36.72
74334;BME280;62753;40.394;-80.022;2023-08-17T08:09:24;97126.17;;;28.80;36.89
74334;BME280;62753;40.394;-80.022;2023-08-17T08:11:49;97126.38;;;29.46;35.86
74334;BME280;62753;40.394;-80.022;2023-08-17T08:14:15;97126.51;;;29.17;35.74
74334;BME280;62753;40.394;-80.022;2023-08-17T08:16:40;97133.35;;;29.51;35.93
74334;BME280;62753;40.394;-80.022;2023-08-17T08:19:06;97135.74;;;28.04;38.06
74334;BME280;62753;40.394;-80.022;2023-08-17T08:21:31;97134.18;;;26.80;41.00
74334;BME280;62753;40.394;-80.022;2023-08-17T08:23:56;97132.10;;;26.22;42.20
74334;BME280;62753;40.394;-80.022;2023-08-17T08:26:22;97132.99;;;25.96;42.89
74334;BME280;62753;40.394;-80.022;2023-08-17T08:28:47;97133.58;;;26.54;42.10
74334;BME280;62753;40.394;-80.022;2023-08-17T08:31:13;97139.47;;;27.23;40.64
74334;BME280;62753;40.394;-80.022;2023-08-17T08:33:38;97142.12;;;27.41;39.50
74334;BME280;62753;40.394;-80.022;2023-08-17T08:36:04;97144.78;;;27.69;39.25
74334;BME280;62753;40.394;-80.022;2023-08-17T08:38:29;97142.14;;;27.72;38.93
74334;BME280;62753;40.394;-80.022;2023-08-17T08:40:55;97138.26;;;27.64;38.54
74334;BME280;62753;40.394;-80.022;2023-08-17T08:43:21;97137.79;;;28.65;37.55
74334;BME280;62753;40.394;-80.022;2023-08-17T08:45:45;97138.64;;;27.61;38.93
74334;BME280;62753;40.394;-80.022;2023-08-17T08:48:11;97134.71;;;28.01;38.52
74334;BME280;62753;40.394;-80.022;2023-08-17T08:50:39;97132.04;;;27.06;39.51
74334;BME280;62753;40.394;-80.022;2023-08-17T08:53:03;97131.27;;;28.06;38.56
74334;BME280;62753;40.394;-80.022;2023-08-17T08:55:30;97125.71;;;27.05;39.91
74334;BME280;62753;40.394;-80.022;2023-08-17T08:57:54;97122.67;;;27.00;40.08
74334;BME280;62753;40.394;-80.022;2023-08-17T09:00:20;97125.16;;;27.04;39.68
74334;BME280;62753;40.394;-80.022;2023-08-17T09:02:45;97126.87;;;27.59;38.59
74334;BME280;62753;40.394;-80.022;2023-08-17T09:05:11;97127.32;;;28.27;37.60
74334;BME280;62753;40.394;-80.022;2023-08-17T09:07:37;97126.86;;;28.37;37.27
74334;BME280;62753;40.394;-80.022;2023-08-17T09:10:02;97124.50;;;28.47;37.38
74334;BME280;62753;40.394;-80.022;2023-08-17T09:12:26;97124.64;;;27.27;39.24
74334;BME280;62753;40.394;-80.022;2023-08-17T09:14:52;97125.96;;;28.08;38.32
74334;BME280;62753;40.394;-80.022;2023-08-17T09:17:23;97131.12;;;27.47;38.69
74334;BME280;62753;40.394;-80.022;2023-08-17T09:19:48;97129.29;;;27.64;39.07
74334;BME280;62753;40.394;-80.022;2023-08-17T09:22:09;97124.20;;;28.54;37.75
74334;BME280;62753;40.394;-80.022;2023-08-17T09:24:35;97120.71;;;28.03;38.19
74334;BME280;62753;40.394;-80.022;2023-08-17T09:26:59;97119.18;;;27.44;38.65
74334;BME280;62753;40.394;-80.022;2023-08-17T09:29:26;97114.77;;;28.02;38.39
74334;BME280;62753;40.394;-80.022;2023-08-17T09:31:51;97111.55;;;27.53;39.36
74334;BME280;62753;40.394;-80.022;2023-08-17T09:34:16;97110.20;;;27.84;38.76
74334;BME280;62753;40.394;-80.022;2023-08-17T09:36:42;97112.27;;;26.79;40.15
74334;BME280;62753;40.394;-80.022;2023-08-17T09:39:06;97110.74;;;27.78;38.78
74334;BME280;62753;40.394;-80.022;2023-08-17T09:41:38;97109.96;;;28.77;37.67
74334;BME280;62753;40.394;-80.022;2023-08-17T09:43:58;97111.44;;;27.60;38.57
74334;BME280;62753;40.394;-80.022;2023-08-17T09:46:22;97106.70;;;28.41;37.66
74334;BME280;62753;40.394;-80.022;2023-08-17T09:48:48;97105.39;;;28.35;37.95
74334;BME280;62753;40.394;-80.022;2023-08-17T09:51:15;97099.01;;;28.41;37.62
74334;BME280;62753;40.394;-80.022;2023-08-17T09:53:39;97099.60;;;28.75;37.02
74334;BME280;62753;40.394;-80.022;2023-08-17T09:56:05;97096.94;;;28.30;37.41
74334;BME280;62753;40.394;-80.022;2023-08-17T09:58:30;97102.38;;;27.38;38.73
74334;BME280;62753;40.394;-80.022;2023-08-17T10:00:57;97104.65;;;27.97;37.91
74334;BME280;62753;40.394;-80.022;2023-08-17T10:03:21;97104.61;;;28.02;37.97
74334;BME280;62753;40.394;-80.022;2023-08-17T10:05:51;97102.04;;;27.99;37.35
74334;BME280;62753;40.394;-80.022;2023-08-17T10:08:12;97101.49;;;28.47;37.22
74334;BME280;62753;40.394;-80.022;2023-08-17T10:10:40;97107.38;;;28.04;37.95
74334;BME280;62753;40.394;-80.022;2023-08-17T10:13:09;97107.19;;;27.70;38.51
74334;BME280;62753;40.394;-80.022;2023-08-17T10:15:30;97102.67;;;28.81;37.15
74334;BME280;62753;40.394;-80.022;2023-08-17T10:17:58;97103.95;;;28.66;37.18
74334;BME280;62753;40.394;-80.022;2023-08-17T10:20:20;97104.26;;;29.20;36.59
74334;BME280;62753;40.394;-80.022;2023-08-17T10:22:51;97104.58;;;27.87;38.26
74334;BME280;62753;40.394;-80.022;2023-08-17T10:25:12;97107.73;;;27.57;38.97
74334;BME280;62753;40.394;-80.022;2023-08-17T10:27:36;97099.94;;;27.45;38.89
74334;BME280;62753;40.394;-80.022;2023-08-17T10:30:02;97093.96;;;27.25;38.87
74334;BME280;62753;40.394;-80.022;2023-08-17T10:32:27;97099.95;;;27.15;39.62
74334;BME280;62753;40.394;-80.022;2023-08-17T10:34:53;97098.07;;;27.95;38.11
74334;BME280;62753;40.394;-80.022;2023-08-17T10:37:19;97104.07;;;27.56;38.91
74334;BME280;62753;40.394;-80.022;2023-08-17T10:39:46;97101.21;;;27.98;38.18
74334;BME280;62753;40.394;-80.022;2023-08-17T10:42:09;97103.17;;;27.16;38.70
74334;BME280;62753;40.394;-80.022;2023-08-17T10:44:40;97103.21;;;27.61;38.88
74334;BME280;62753;40.394;-80.022;2023-08-17T10:49:26;97106.76;;;27.66;38.42
74334;BME280;62753;40.394;-80.022;2023-08-17T10:52:02;97107.54;;;26.89;39.61
74334;BME280;62753;40.394;-80.022;2023-08-17T10:54:17;97109.85;;;27.37;38.42
74334;BME280;62753;40.394;-80.022;2023-08-17T10:56:42;97112.26;;;26.99;39.05
74334;BME280;62753;40.394;-80.022;2023-08-17T11:01:34;97106.84;;;28.72;36.82
74334;BME280;62753;40.394;-80.022;2023-08-17T11:04:09;97107.53;;;28.85;36.20
74334;BME280;62753;40.394;-80.022;2023-08-17T11:06:23;97111.87;;;28.05;37.29
74334;BME280;62753;40.394;-80.022;2023-08-17T11:08:54;97108.65;;;28.30;37.45
74334;BME280;62753;40.394;-80.022;2023-08-17T11:11:14;97108.57;;;28.79;36.65
74334;BME280;62753;40.394;-80.022;2023-08-17T11:13:40;97105.82;;;29.03;36.14
74334;BME280;62753;40.394;-80.022;2023-08-17T11:16:05;97105.66;;;28.81;37.07
74334;BME280;62753;40.394;-80.022;2023-08-17T11:18:30;97107.12;;;28.72;37.16
74334;BME280;62753;40.394;-80.022;2023-08-17T11:20:56;97113.30;;;28.14;38.24
74334;BME280;62753;40.394;-80.022;2023-08-17T11:23:21;97109.65;;;28.23;38.40
74334;BME280;62753;40.394;-80.022;2023-08-17T11:25:45;97110.21;;;28.36;38.12
74334;BME280;62753;40.394;-80.022;2023-08-17T11:28:11;97108.67;;;27.63;39.36
74334;BME280;62753;40.394;-80.022;2023-08-17T11:30:37;97108.29;;;28.11;38.97
74334;BME280;62753;40.394;-80.022;2023-08-17T11:33:02;97108.02;;;27.90;39.19
74334;BME280;62753;40.394;-80.022;2023-08-17T11:35:27;97101.62;;;27.88;38.82
74334;BME280;62753;40.394;-80.022;2023-08-17T11:37:53;97098.56;;;27.92;38.73
74334;BME280;62753;40.394;-80.022;2023-08-17T11:40:18;97097.86;;;28.22;38.34
74334;BME280;62753;40.394;-80.022;2023-08-17T11:42:44;97092.80;;;28.50;37.43
74334;BME280;62753;40.394;-80.022;2023-08-17T11:45:09;97092.82;;;29.04;36.87
74334;BME280;62753;40.394;-80.022;2023-08-17T11:47:33;97095.81;;;28.95;37.07
74334;BME280;62753;40.394;-80.022;2023-08-17T11:50:00;97093.30;;;28.92;37.75
74334;BME280;62753;40.394;-80.022;2023-08-17T11:52:26;97094.31;;;28.09;38.50
74334;BME280;62753;40.394;-80.022;2023-08-17T11:54:51;97084.47;;;28.49;37.67
74334;BME280;62753;40.394;-80.022;2023-08-17T11:57:16;97082.55;;;28.29;38.18
74334;BME280;62753;40.394;-80.022;2023-08-17T11:59:41;97073.44;;;28.33;38.28
74334;BME280;62753;40.394;-80.022;2023-08-17T12:02:07;97070.84;;;28.18;38.12
74334;BME280;62753;40.394;-80.022;2023-08-17T12:04:33;97068.29;;;28.61;38.05
74334;BME280;62753;40.394;-80.022;2023-08-17T12:06:58;97070.34;;;28.27;38.16
74334;BME280;62753;40.394;-80.022;2023-08-17T12:09:23;97070.78;;;28.30;38.36
74334;BME280;62753;40.394;-80.022;2023-08-17T12:11:52;97068.25;;;28.23;38.55
74334;BME280;62753;40.394;-80.022;2023-08-17T12:14:14;97070.83;;;28.32;38.52
74334;BME280;62753;40.394;-80.022;2023-08-17T12:16:46;97065.77;;;28.48;38.33
74334;BME280;62753;40.394;-80.022;2023-08-17T12:19:05;97062.36;;;28.07;38.48
74334;BME280;62753;40.394;-80.022;2023-08-17T12:21:30;97061.65;;;28.47;38.20
74334;BME280;62753;40.394;-80.022;2023-08-17T12:23:54;97061.46;;;28.70;38.05
74334;BME280;62753;40.394;-80.022;2023-08-17T12:26:20;97063.97;;;28.52;38.60
74334;BME280;62753;40.394;-80.022;2023-08-17T12:28:45;97062.22;;;29.08;37.35
74334;BME280;62753;40.394;-80.022;2023-08-17T12:31:10;97058.82;;;28.67;37.67
74334;BME280;62753;40.394;-80.022;2023-08-17T12:33:35;97057.71;;;29.45;37.22
74334;BME280;62753;40.394;-80.022;2023-08-17T12:36:00;97055.06;;;29.04;37.65